createdAt,value
2023-04-28T00:01:20.965Z,8.22
2023-04-28T00:05:25.570Z,8.14
2023-04-28T00:09:28.763Z,8.07
2023-04-28T00:13:31.790Z,7.98
2023-04-28T00:17:35.128Z,7.89
2023-04-28T00:21:39.848Z,7.79
2023-04-28T00:25:42.909Z,7.70
2023-04-28T00:29:46.002Z,7.64
2023-04-28T00:33:52.838Z,7.58
2023-04-28T00:37:57.261Z,7.58
2023-04-28T00:42:00.432Z,7.60
2023-04-28T00:46:03.772Z,7.56
2023-04-28T00:50:07.810Z,7.48
2023-04-28T00:54:15.312Z,7.42
2023-04-28T00:58:18.654Z,7.38
2023-04-28T01:02:21.926Z,7.40
2023-04-28T01:06:25.480Z,7.40
2023-04-28T01:10:33.665Z,7.42
2023-04-28T01:14:44.534Z,7.43
2023-04-28T01:18:49.242Z,7.43
2023-04-28T01:22:52.352Z,7.41
2023-04-28T01:26:57.257Z,7.40
2023-04-28T01:31:00.311Z,7.37
2023-04-28T01:35:03.714Z,7.35
2023-04-28T01:39:07.018Z,7.32
2023-04-28T01:43:11.512Z,7.27
2023-04-28T01:47:14.601Z,7.25
2023-04-28T01:51:17.791Z,7.19
2023-04-28T01:55:21.577Z,7.09
2023-04-28T01:59:27.030Z,7.03
2023-04-28T02:03:30.567Z,6.97
2023-04-28T02:07:33.818Z,6.92
2023-04-28T02:11:36.948Z,6.84
2023-04-28T02:15:42.732Z,6.80
2023-04-28T02:19:45.781Z,6.71
2023-04-28T02:23:50.538Z,6.69
2023-04-28T02:27:53.628Z,6.67
2023-04-28T02:31:58.133Z,6.66
2023-04-28T02:36:01.480Z,6.61
2023-04-28T02:40:05.201Z,6.56
2023-04-28T02:44:08.218Z,6.57
2023-04-28T02:48:12.714Z,6.61
2023-04-28T02:52:16.003Z,6.65
2023-04-28T02:56:19.323Z,6.66
2023-04-28T03:00:22.610Z,6.65
2023-04-28T03:04:28.624Z,6.63
2023-04-28T03:08:31.867Z,6.62
2023-04-28T03:12:34.904Z,6.56
2023-04-28T03:16:38.031Z,6.50
2023-04-28T03:20:42.625Z,6.41
2023-04-28T03:24:46.090Z,6.38
2023-04-28T03:28:49.137Z,6.34
2023-04-28T03:32:52.883Z,6.32
2023-04-28T03:36:57.349Z,6.28
2023-04-28T03:41:05.506Z,6.28
2023-04-28T03:45:31.654Z,6.30
2023-04-28T03:49:35.078Z,6.29
2023-04-28T03:53:39.775Z,6.26
2023-04-28T03:57:43.256Z,6.24
2023-04-28T04:01:46.268Z,6.21
2023-04-28T04:05:49.698Z,6.23
2023-04-28T04:09:54.184Z,6.26
2023-04-28T04:13:57.382Z,6.28
2023-04-28T04:18:01.970Z,6.31
2023-04-28T04:22:14.328Z,6.33
2023-04-28T04:26:19.182Z,6.36
2023-04-28T04:30:24.500Z,6.36
2023-04-28T04:34:27.665Z,6.37
2023-04-28T04:38:31.159Z,6.41
2023-04-28T04:42:39.997Z,6.46
2023-04-28T04:46:46.170Z,6.52
2023-04-28T04:50:49.752Z,6.52
2023-04-28T04:54:53.216Z,6.54
2023-04-28T04:58:57.980Z,6.58
2023-04-28T05:03:24.410Z,6.64
2023-04-28T05:07:27.948Z,6.71
2023-04-28T05:11:32.342Z,6.78
2023-04-28T05:15:37.038Z,6.82
2023-04-28T05:19:57.351Z,6.82
2023-04-28T05:24:00.874Z,6.89
2023-04-28T05:28:07.566Z,6.91
2023-04-28T05:32:12.467Z,6.96
2023-04-28T05:36:17.079Z,7.07
2023-04-28T05:40:22.309Z,7.22
2023-04-28T05:44:25.768Z,7.32
2023-04-28T05:48:30.259Z,7.48
2023-04-28T05:52:33.390Z,7.55
2023-04-28T05:56:36.654Z,7.68
2023-04-28T06:00:39.962Z,7.77
2023-04-28T06:04:44.886Z,7.93
2023-04-28T06:08:48.160Z,8.12
2023-04-28T06:12:51.200Z,8.32
2023-04-28T06:16:54.282Z,8.50
2023-04-28T06:20:58.706Z,8.76
2023-04-28T06:25:01.818Z,8.98
2023-04-28T06:29:10.825Z,9.21
2023-04-28T06:33:13.929Z,9.52
2023-04-28T06:37:19.074Z,9.80
2023-04-28T06:41:24.068Z,10.06
2023-04-28T06:45:28.693Z,10.26
2023-04-28T06:49:33.232Z,10.42
2023-04-28T06:53:38.379Z,10.68
2023-04-28T07:01:47.780Z,10.97
2023-04-28T07:05:51.132Z,10.96
2023-04-28T07:09:56.036Z,10.98
2023-04-28T07:13:59.055Z,10.94
2023-04-28T07:18:02.149Z,11.01
2023-04-28T07:22:05.433Z,11.16
2023-04-28T07:26:09.832Z,11.25
2023-04-28T07:30:26.531Z,11.35
2023-04-28T07:34:30.726Z,11.53
2023-04-28T07:38:35.272Z,11.75
2023-04-28T07:42:39.668Z,11.92
2023-04-28T07:46:42.778Z,12.07
2023-04-28T07:50:45.978Z,12.30
2023-04-28T07:54:49.021Z,12.55
2023-04-28T07:58:53.810Z,12.75
2023-04-28T08:02:57.786Z,12.96
2023-04-28T08:07:01.088Z,13.09
2023-04-28T08:11:04.214Z,13.07
2023-04-28T08:15:10.381Z,13.10
2023-04-28T08:19:13.433Z,13.16
2023-04-28T08:23:16.556Z,13.24
2023-04-28T08:27:19.666Z,13.40
2023-04-28T08:31:24.177Z,13.62
2023-04-28T08:35:27.503Z,13.84
2023-04-28T08:39:31.770Z,14.00
2023-04-28T08:43:36.349Z,14.17
2023-04-28T08:47:45.950Z,14.35
2023-04-28T08:51:54.283Z,14.67
2023-04-28T08:55:59.042Z,14.88
2023-04-28T09:00:02.747Z,15.09
2023-04-28T09:04:08.375Z,15.21
2023-04-28T09:08:12.332Z,15.32
2023-04-28T09:12:15.385Z,15.41
2023-04-28T09:16:18.812Z,15.55
2023-04-28T09:20:24.392Z,15.76
2023-04-28T09:24:29.567Z,15.85
2023-04-28T09:28:33.247Z,15.83
2023-04-28T09:32:36.388Z,15.88
2023-04-28T09:36:40.789Z,15.96
2023-04-28T09:40:56.725Z,15.99
2023-04-28T09:45:00.172Z,16.01
2023-04-28T09:49:03.318Z,16.01
2023-04-28T09:53:13.098Z,16.15
2023-04-28T09:57:17.037Z,16.31
2023-04-28T10:01:20.276Z,16.38
2023-04-28T10:05:24.800Z,16.50
2023-04-28T10:09:29.709Z,16.59
2023-04-28T10:13:33.596Z,16.74
2023-04-28T10:17:38.404Z,16.85
2023-04-28T10:21:49.456Z,16.89
2023-04-28T10:25:58.251Z,16.92
2023-04-28T10:30:26.253Z,16.93
2023-04-28T10:34:31.437Z,16.93
2023-04-28T10:38:35.061Z,16.96
2023-04-28T10:42:56.459Z,16.98
2023-04-28T10:47:03.906Z,16.99
2023-04-28T10:51:34.924Z,17.18
2023-04-28T10:55:39.984Z,17.41
2023-04-28T10:59:44.412Z,17.54
2023-04-28T11:03:51.970Z,17.66
2023-04-28T11:08:33.293Z,17.88
2023-04-28T11:12:36.628Z,18.03
2023-04-28T11:16:51.809Z,18.03
2023-04-28T11:20:58.701Z,18.10
2023-04-28T11:25:03.213Z,18.14
2023-04-28T11:29:06.658Z,18.27
2023-04-28T11:33:11.289Z,18.28
2023-04-28T11:37:17.043Z,18.31
2023-04-28T11:41:21.125Z,18.41
2023-04-28T11:45:24.145Z,18.58
2023-04-28T11:49:30.400Z,18.64
2023-04-28T11:53:43.077Z,18.69
2023-04-28T11:57:46.384Z,18.68
2023-04-28T12:01:50.719Z,18.57
2023-04-28T12:05:55.330Z,18.53
2023-04-28T12:10:12.546Z,18.45
2023-04-28T12:14:15.935Z,18.48
2023-04-28T12:18:19.530Z,18.52
2023-04-28T12:22:24.872Z,18.46
2023-04-28T12:26:28.068Z,18.42
2023-04-28T12:30:33.439Z,18.44
2023-04-28T12:34:37.269Z,18.36
2023-04-28T12:38:49.066Z,18.26
2023-04-28T12:42:52.331Z,18.23
2023-04-28T12:46:56.186Z,18.19
2023-04-28T12:50:59.195Z,18.13
2023-04-28T12:55:03.598Z,18.10
2023-04-28T12:59:06.916Z,18.10
2023-04-28T13:03:10.245Z,18.04
2023-04-28T13:07:13.673Z,17.83
2023-04-28T13:11:22.379Z,17.76
2023-04-28T13:15:27.267Z,17.70
2023-04-28T13:19:31.270Z,17.60
2023-04-28T13:23:34.493Z,17.53
2023-04-28T13:27:40.107Z,17.44
2023-04-28T13:31:44.835Z,17.34
2023-04-28T13:35:47.939Z,17.33
2023-04-28T13:39:51.103Z,17.36
2023-04-28T13:43:55.734Z,17.37
2023-04-28T13:47:59.087Z,17.36
2023-04-28T13:52:03.635Z,17.29
2023-04-28T13:56:07.997Z,17.27
2023-04-28T14:00:13.700Z,17.16
2023-04-28T14:04:17.027Z,17.10
2023-04-28T14:08:20.878Z,17.09
2023-04-28T14:12:24.255Z,17.09
2023-04-28T14:16:29.101Z,16.98
2023-04-28T14:20:32.432Z,16.92
2023-04-28T14:24:35.612Z,16.92
2023-04-28T14:28:38.646Z,17.01
2023-04-28T14:32:43.116Z,16.99
2023-04-28T14:36:46.794Z,16.99
2023-04-28T14:40:50.157Z,16.94
2023-04-28T14:44:54.561Z,16.87
2023-04-28T14:48:59.450Z,16.81
2023-04-28T14:53:05.634Z,16.72
2023-04-28T14:57:08.769Z,16.64
2023-04-28T15:01:11.965Z,16.54
2023-04-28T15:05:16.397Z,16.46
2023-04-28T15:09:19.486Z,16.35
2023-04-28T15:13:25.223Z,16.29
2023-04-28T15:17:28.491Z,16.25
2023-04-28T15:21:33.008Z,16.20
2023-04-28T15:25:36.189Z,16.21
2023-04-28T15:29:39.226Z,16.18
2023-04-28T15:33:42.251Z,16.14
2023-04-28T15:37:49.138Z,16.06
2023-04-28T15:41:52.363Z,16.05
2023-04-28T15:45:55.627Z,16.05
2023-04-28T15:49:59.570Z,16.01
2023-04-28T15:54:03.968Z,15.99
2023-04-28T15:58:08.663Z,15.90
2023-04-28T16:02:11.663Z,15.74
2023-04-28T16:06:14.804Z,15.62
2023-04-28T16:10:19.209Z,15.54
2023-04-28T16:14:22.447Z,15.44
2023-04-28T16:18:25.747Z,15.34
2023-04-28T16:22:29.798Z,15.26
2023-04-28T16:26:34.314Z,15.21
2023-04-28T16:30:37.331Z,15.19
2023-04-28T16:34:40.362Z,15.17
2023-04-28T16:38:45.727Z,15.13
2023-04-28T16:42:50.855Z,15.11
2023-04-28T16:46:54.280Z,15.08
2023-04-28T16:50:57.340Z,15.08
2023-04-28T16:55:00.549Z,15.09
2023-04-28T16:59:04.979Z,15.01
2023-04-28T17:03:08.173Z,14.93
2023-04-28T17:07:11.505Z,14.88
2023-04-28T17:11:17.190Z,14.76
2023-04-28T17:15:21.853Z,14.67
2023-04-28T17:19:25.002Z,14.59
2023-04-28T17:23:28.278Z,14.53
2023-04-28T17:27:31.646Z,14.48
2023-04-28T17:31:38.787Z,14.40
2023-04-28T17:35:42.305Z,14.29
2023-04-28T17:39:45.333Z,14.25
2023-04-28T17:43:49.002Z,14.24
2023-04-28T17:47:53.467Z,14.22
2023-04-28T17:51:56.574Z,14.16
2023-04-28T17:56:01.555Z,14.13
2023-04-28T18:00:05.300Z,14.09
2023-04-28T18:04:16.253Z,14.06
2023-04-28T18:08:19.250Z,13.99
2023-04-28T18:12:22.364Z,13.95
2023-04-28T18:16:26.102Z,13.93
2023-04-28T18:20:30.600Z,13.89
2023-04-28T18:24:33.724Z,13.82
2023-04-28T18:28:37.663Z,13.75
2023-04-28T18:32:40.764Z,13.72
2023-04-28T18:36:45.250Z,13.69
2023-04-28T18:40:48.299Z,13.63
2023-04-28T18:44:53.821Z,13.57
2023-04-28T18:48:57.368Z,13.54
2023-04-28T18:53:02.520Z,13.55
2023-04-28T18:57:06.664Z,13.53
2023-04-28T19:01:14.883Z,13.53
2023-04-28T19:05:18.052Z,13.51
2023-04-28T19:09:22.612Z,13.49
2023-04-28T19:13:25.753Z,13.46
2023-04-28T19:17:29.553Z,13.46
2023-04-28T19:21:35.485Z,13.46
2023-04-28T19:25:40.011Z,13.42
2023-04-28T19:29:43.553Z,13.41
2023-04-28T19:33:46.541Z,13.40
2023-04-28T19:37:49.935Z,13.38
2023-04-28T19:41:54.867Z,13.34
2023-04-28T19:45:58.183Z,13.30
2023-04-28T19:50:01.492Z,13.30
2023-04-28T19:54:04.579Z,13.30
2023-04-28T19:58:10.157Z,13.29
2023-04-28T20:02:13.410Z,13.27
2023-04-28T20:06:17.744Z,13.29
2023-04-28T20:10:20.918Z,13.28
2023-04-28T20:14:25.772Z,13.27
2023-04-28T20:18:29.088Z,13.24
2023-04-28T20:22:32.372Z,13.24
2023-04-28T20:26:35.630Z,13.22
2023-04-28T20:30:41.980Z,13.19
2023-04-28T20:34:45.564Z,13.18
2023-04-28T20:38:49.203Z,13.13
2023-04-28T20:42:52.356Z,13.10
2023-04-28T20:46:57.303Z,13.04
2023-04-28T20:51:02.857Z,13.02
2023-04-28T20:55:07.049Z,12.98
2023-04-28T20:59:10.169Z,12.94
2023-04-28T21:03:15.844Z,12.94
2023-04-28T21:07:19.068Z,12.98
2023-04-28T21:11:22.091Z,12.99
2023-04-28T21:15:25.792Z,12.99
2023-04-28T21:19:30.375Z,12.97
2023-04-28T21:23:33.409Z,12.98
2023-04-28T21:27:36.478Z,12.98
2023-04-28T21:31:39.742Z,12.97
2023-04-28T21:35:44.307Z,12.97
2023-04-28T21:39:47.392Z,12.90
2023-04-28T21:43:50.383Z,12.88
2023-04-28T21:47:53.514Z,12.88
2023-04-28T21:51:58.020Z,12.88
2023-04-28T21:56:01.075Z,12.87
2023-04-28T22:00:06.366Z,12.89
2023-04-28T22:04:16.848Z,12.87
2023-04-28T22:08:21.747Z,12.85
2023-04-28T22:12:24.955Z,12.83
2023-04-28T22:16:28.377Z,12.83
2023-04-28T22:20:32.111Z,12.83
2023-04-28T22:24:37.185Z,12.83
2023-04-28T22:28:40.196Z,12.78
2023-04-28T22:32:44.666Z,12.78
2023-04-28T22:36:47.905Z,12.78
2023-04-28T22:40:52.611Z,12.80
2023-04-28T22:44:55.623Z,12.77
2023-04-28T22:48:59.022Z,12.75
2023-04-28T22:53:03.884Z,12.73
2023-04-28T22:57:08.276Z,12.71
2023-04-28T23:01:11.663Z,12.69
2023-04-28T23:05:14.879Z,12.71
2023-04-28T23:09:17.917Z,12.72
2023-04-28T23:13:22.392Z,12.68
2023-04-28T23:17:25.520Z,12.65
2023-04-28T23:21:29.494Z,12.64
2023-04-28T23:25:32.561Z,12.66
2023-04-28T23:29:37.818Z,12.66
2023-04-28T23:33:40.965Z,12.64
2023-04-28T23:37:44.264Z,12.62
2023-04-28T23:41:47.358Z,12.60
2023-04-28T23:45:51.935Z,12.59
2023-04-28T23:49:55.068Z,12.59
2023-04-28T23:53:58.076Z,12.58
2023-04-28T23:58:01.232Z,12.55
